Time;durP1;ratioP1;P1;durP2;ratioP2;P2;SDS_P1;SDS_P2;PMS_P1;PMS_P2;Temp;Humidity;BMP_temperature;BMP_pressure;BME280_temperature;BME280_humidity;BME280_pressure;Samples;Min_cycle;Max_cycle;Signal;HPM_P1;HPM_P2
2024/02/08 00:00:10;;;;;;;6.70;4.30;;;;;;;1.02;85.69;98782.09;102299;1270;112989;-67
2024/02/08 00:02:57;;;;;;;5.30;3.70;;;;;;;0.94;85.94;98768.20;102402;1270;97845;-65
2024/02/08 00:05:26;;;;;;;7.70;4.00;;;;;;;1.01;85.76;98781.08;102377;1270;110708;-66
2024/02/08 00:07:53;;;;;;;7.10;4.30;;;;;;;1.02;85.83;98785.34;102339;1270;139561;-65
2024/02/08 00:10:22;;;;;;;6.20;3.90;;;;;;;1.01;85.77;98782.79;102414;1270;98360;-66
2024/02/08 00:12:50;;;;;;;7.00;4.00;;;;;;;1.03;85.96;98785.15;103116;1269;138423;-67
2024/02/08 00:15:17;;;;;;;8.40;4.80;;;;;;;1.06;85.91;98784.41;101770;1271;1002669;-66
2024/02/08 00:17:46;;;;;;;8.50;4.90;;;;;;;1.09;86.06;98786.94;102297;1272;111931;-65
2024/02/08 00:20:15;;;;;;;9.80;4.40;;;;;;;1.12;86.01;98788.25;102280;1269;138501;-67
2024/02/08 00:22:43;;;;;;;7.30;4.10;;;;;;;1.15;85.95;98790.77;102579;1269;97830;-67
2024/02/08 00:25:11;;;;;;;7.50;4.40;;;;;;;1.16;85.89;98790.57;102306;1270;138381;-66
2024/02/08 00:27:38;;;;;;;7.40;4.30;;;;;;;1.16;85.75;98792.79;103287;1269;97900;-67
2024/02/08 00:30:06;;;;;;;10.20;4.70;;;;;;;1.17;85.81;98795.86;103322;1268;111582;-67
2024/02/08 00:32:33;;;;;;;8.00;4.80;;;;;;;1.18;85.88;98804.73;102590;1272;138586;-66
2024/02/08 00:35:03;;;;;;;8.60;4.40;;;;;;;1.17;85.88;98798.77;102807;1269;98000;-66
2024/02/08 00:37:34;;;;;;;8.30;5.10;;;;;;;1.18;85.79;98803.55;101543;1270;1003057;-66
2024/02/08 00:40:02;;;;;;;8.60;4.70;;;;;;;1.15;85.75;98803.59;102808;1267;97701;-68
2024/02/08 00:42:30;;;;;;;10.20;5.10;;;;;;;1.16;86.08;98809.57;102974;1270;110714;-67
2024/02/08 00:44:57;;;;;;;8.40;4.80;;;;;;;1.18;86.12;98810.73;102364;1272;108321;-67
2024/02/08 00:47:24;;;;;;;8.50;5.50;;;;;;;1.19;86.32;98811.05;102462;1269;98349;-67
2024/02/08 00:49:51;;;;;;;11.20;5.20;;;;;;;1.22;86.40;98809.97;102532;1272;138450;-67
2024/02/08 00:52:19;;;;;;;9.60;5.30;;;;;;;1.25;86.54;98813.17;102410;1269;97935;-68
2024/02/08 00:54:45;;;;;;;9.40;5.60;;;;;;;1.28;86.57;98814.69;102318;1272;138700;-68
2024/02/08 00:57:12;;;;;;;9.60;5.10;;;;;;;1.31;86.64;98815.48;102783;1270;107989;-67
2024/02/08 00:59:40;;;;;;;9.10;4.90;;;;;;;1.33;86.48;98821.27;102810;1269;97847;-67
2024/02/08 01:02:08;;;;;;;10.00;5.10;;;;;;;1.36;86.47;98829.95;102502;1272;138051;-66
2024/02/08 01:04:36;;;;;;;8.40;4.50;;;;;;;1.37;86.35;98828.20;102520;1272;97822;-68
2024/02/08 01:07:03;;;;;;;7.70;4.80;;;;;;;1.39;86.32;98830.56;102416;1267;139423;-68
2024/02/08 01:09:30;;;;;;;7.20;3.80;;;;;;;1.39;85.89;98833.15;102442;1270;107220;-67
2024/02/08 01:12:01;;;;;;;7.40;4.20;;;;;;;1.36;85.52;98836.12;102460;1270;97957;-67
2024/02/08 01:14:30;;;;;;;5.70;4.00;;;;;;;1.32;85.42;98835.66;102340;1270;138166;-67
2024/02/08 01:16:57;;;;;;;9.90;4.40;;;;;;;1.30;85.42;98839.15;102424;1270;97800;-67
2024/02/08 01:19:25;;;;;;;6.40;4.20;;;;;;;1.27;85.41;98842.44;102334;1270;138176;-67
2024/02/08 01:21:53;;;;;;;8.20;4.60;;;;;;;1.23;85.41;98841.13;102702;1272;107915;-67
2024/02/08 01:24:21;;;;;;;7.40;4.20;;;;;;;1.20;85.47;98846.64;102471;1267;98356;-69
2024/02/08 01:26:49;;;;;;;9.90;4.80;;;;;;;1.18;85.36;98847.19;102380;1268;137902;-68
2024/02/08 01:29:17;;;;;;;7.80;4.40;;;;;;;1.16;85.27;98850.48;102888;1269;97769;-67
2024/02/08 01:31:44;;;;;;;9.90;4.80;;;;;;;1.13;85.21;98851.23;102765;1272;138117;-67
2024/02/08 01:34:12;;;;;;;7.00;4.60;;;;;;;1.08;85.07;98852.52;102374;1270;107180;-67
2024/02/08 01:36:40;;;;;;;6.80;4.20;;;;;;;1.04;84.97;98855.13;102336;1273;139429;-66
2024/02/08 01:39:12;;;;;;;8.60;4.40;;;;;;;1.00;84.87;98849.04;102440;1270;107456;-67
2024/02/08 01:41:40;;;;;;;9.00;4.50;;;;;;;0.96;84.75;98850.83;102464;1272;97930;-67
2024/02/08 01:44:08;;;;;;;8.50;4.50;;;;;;;0.93;84.88;98845.75;102622;1268;138284;-66
2024/02/08 01:46:38;;;;;;;7.50;4.40;;;;;;;0.86;84.58;98844.98;102469;1267;107048;-67
2024/02/08 01:49:07;;;;;;;9.50;4.20;;;;;;;0.78;84.44;98847.33;102350;1270;138949;-68
2024/02/08 01:51:35;;;;;;;9.80;4.30;;;;;;;0.73;84.44;98852.71;102352;1270;109252;-67
2024/02/08 01:54:03;;;;;;;7.50;4.50;;;;;;;0.68;84.46;98848.15;102481;1272;97969;-67
2024/02/08 01:56:30;;;;;;;7.60;4.20;;;;;;;0.64;84.57;98844.81;102365;1267;138424;-67
2024/02/08 01:58:58;;;;;;;6.10;3.80;;;;;;;0.63;84.50;98842.60;102355;1271;107786;-67
2024/02/08 02:01:26;;;;;;;7.20;4.00;;;;;;;0.58;84.33;98843.35;102398;1270;138363;-66
2024/02/08 02:03:53;;;;;;;7.00;3.70;;;;;;;0.52;84.21;98844.27;102447;1269;107211;-67
2024/02/08 02:06:20;;;;;;;5.60;3.70;;;;;;;0.48;84.29;98842.98;102619;1269;97711;-66
2024/02/08 02:08:57;;;;;;;5.20;3.50;;;;;;;0.44;84.48;98838.41;101693;1269;1002421;-67
2024/02/08 02:11:30;;;;;;;6.80;4.10;;;;;;;0.41;84.49;98839.15;102464;1270;107251;-67
2024/02/08 02:13:59;;;;;;;9.00;4.00;;;;;;;0.38;84.48;98839.36;102520;1270;138275;-68
2024/02/08 02:16:26;;;;;;;6.90;3.90;;;;;;;0.33;84.39;98840.78;102450;1267;107657;-68
2024/02/08 02:18:53;;;;;;;7.30;4.10;;;;;;;0.30;84.54;98840.31;102239;1272;139198;-67
2024/02/08 02:21:22;;;;;;;7.20;3.80;;;;;;;0.26;84.58;98841.57;102492;1270;111160;-67
2024/02/08 02:23:52;;;;;;;6.20;3.80;;;;;;;0.22;84.45;98845.39;102317;1269;108372;-67
2024/02/08 02:26:19;;;;;;;6.10;3.80;;;;;;;0.19;84.65;98847.30;102245;1270;139370;-66
2024/02/08 02:28:47;;;;;;;7.40;3.40;;;;;;;0.16;84.64;98848.02;102720;1272;107837;-66
2024/02/08 02:31:15;;;;;;;6.40;3.80;;;;;;;0.12;84.60;98849.95;101516;1267;1015816;-66
2024/02/08 02:33:44;;;;;;;5.70;4.10;;;;;;;0.09;84.60;98851.70;102432;1270;111310;-66
2024/02/08 02:36:14;;;;;;;6.80;3.90;;;;;;;0.08;84.63;98854.29;102419;1272;108151;-66
2024/02/08 02:38:41;;;;;;;6.30;4.00;;;;;;;0.06;84.63;98855.67;102370;1270;138452;-66
2024/02/08 02:41:08;;;;;;;6.80;4.00;;;;;;;0.05;84.61;98856.71;102373;1273;107597;-67
2024/02/08 02:43:37;;;;;;;8.00;4.20;;;;;;;0.03;84.49;98858.46;102541;1272;138429;-68
2024/02/08 02:46:05;;;;;;;7.50;3.90;;;;;;;0.03;84.66;98858.29;101609;1269;1002556;-67
2024/02/08 02:48:34;;;;;;;7.90;4.60;;;;;;;0.03;84.53;98862.91;102433;1272;107158;-67
2024/02/08 02:51:02;;;;;;;6.10;4.00;;;;;;;0.03;84.59;98865.80;102556;1267;97701;-66
2024/02/08 02:53:31;;;;;;;7.40;3.90;;;;;;;0.02;84.68;98866.84;102677;1270;107446;-66
2024/02/08 02:55:58;;;;;;;8.00;4.50;;;;;;;0.02;84.58;98869.08;102834;1267;139435;-66
2024/02/08 02:58:26;;;;;;;7.40;4.10;;;;;;;0.02;84.66;98873.17;103581;1270;110691;-67
2024/02/08 03:01:04;;;;;;;6.60;4.20;;;;;;;0.02;84.65;98876.75;102460;1273;138471;-68
2024/02/08 03:03:37;;;;;;;6.60;4.60;;;;;;;-0.00;84.46;98875.05;102541;1270;97847;-66
2024/02/08 03:06:13;;;;;;;7.70;4.00;;;;;;;-0.02;84.43;98884.96;102473;1270;109397;-66
2024/02/08 03:08:41;;;;;;;6.10;4.10;;;;;;;-0.02;84.42;98885.98;102713;1269;139342;-66
2024/02/08 03:11:10;;;;;;;8.80;4.40;;;;;;;-0.04;84.39;98884.48;102359;1270;111686;-65
2024/02/08 03:13:38;;;;;;;8.00;4.20;;;;;;;-0.02;84.41;98885.14;102332;1270;138486;-68
2024/02/08 03:16:09;;;;;;;8.30;4.50;;;;;;;-0.03;84.36;98885.16;103231;1269;96449;-67
2024/02/08 03:18:38;;;;;;;7.00;4.30;;;;;;;-0.03;84.27;98889.25;103042;1269;107547;-67
2024/02/08 03:21:05;;;;;;;8.00;4.30;;;;;;;-0.04;84.11;98892.17;102912;1270;96325;-68
2024/02/08 03:23:33;;;;;;;7.40;4.30;;;;;;;-0.07;84.10;98889.98;102970;1270;110830;-66
2024/02/08 03:26:00;;;;;;;7.10;4.20;;;;;;;-0.07;84.15;98882.98;102652;1270;138448;-68
2024/02/08 03:28:28;;;;;;;7.00;4.10;;;;;;;-0.06;84.15;98889.45;102319;1272;97806;-67
2024/02/08 03:30:56;;;;;;;9.80;3.90;;;;;;;-0.05;83.96;98892.86;102345;1270;138449;-69
2024/02/08 03:33:23;;;;;;;6.70;3.30;;;;;;;-0.04;84.00;98895.93;102508;1269;1002557;-67
2024/02/08 03:35:53;;;;;;;6.60;3.40;;;;;;;-0.05;84.06;98896.80;102379;1270;111572;-69
2024/02/08 03:38:20;;;;;;;8.70;3.80;;;;;;;-0.05;84.06;98898.85;102254;1269;138874;-68
2024/02/08 03:40:47;;;;;;;5.20;3.50;;;;;;;-0.04;84.00;98904.14;102767;1270;97841;-66
2024/02/08 03:43:15;;;;;;;6.80;3.40;;;;;;;-0.04;83.93;98903.63;102319;1270;139398;-67
2024/02/08 03:45:43;;;;;;;6.70;3.40;;;;;;;-0.03;83.98;98900.88;102560;1269;97845;-68
2024/02/08 03:48:11;;;;;;;6.10;3.50;;;;;;;-0.02;84.02;98905.30;102581;1270;110746;-67
2024/02/08 03:50:39;;;;;;;6.50;3.70;;;;;;;-0.01;84.01;98906.15;102501;1269;139002;-68
2024/02/08 03:53:12;;;;;;;6.30;4.00;;;;;;;-0.01;84.10;98908.88;102436;1270;97833;-68
2024/02/08 03:55:43;;;;;;;8.00;3.90;;;;;;;0.01;84.13;98911.96;102705;1269;138295;-67
2024/02/08 03:58:14;;;;;;;6.80;3.50;;;;;;;-0.01;83.88;98916.05;102842;1270;97841;-68
2024/02/08 04:00:44;;;;;;;7.10;3.80;;;;;;;0.00;83.95;98920.16;102340;1270;139004;-66
2024/02/08 04:03:14;;;;;;;9.60;4.20;;;;;;;0.01;83.97;98920.33;102850;1269;106838;-67
2024/02/08 04:05:58;;;;;;;6.40;3.80;;;;;;;0.02;83.93;98923.23;102506;1269;98482;-68
2024/02/08 04:55:12;;;;;;;5.90;4.60;;;;;;;0.03;83.24;98934.84;102363;1270;138687;-67
2024/02/08 04:57:39;;;;;;;9.80;4.90;;;;;;;0.02;83.23;98930.73;102413;1270;108427;-68
2024/02/08 05:00:12;;;;;;;8.70;5.00;;;;;;;0.03;83.35;98931.77;102414;1270;97834;-69
2024/02/08 05:02:40;;;;;;;8.90;5.10;;;;;;;0.02;83.34;98931.25;102915;1270;137121;-67
2024/02/08 05:05:11;;;;;;;9.60;5.50;;;;;;;0.04;83.38;98932.60;101897;1273;1002463;-68
2024/02/08 05:07:38;;;;;;;8.60;5.40;;;;;;;0.04;83.41;98937.38;102476;1272;138639;-68
2024/02/08 05:10:09;;;;;;;7.20;5.30;;;;;;;0.04;83.45;98936.54;102399;1267;107018;-70
2024/02/08 05:12:36;;;;;;;9.20;5.50;;;;;;;0.04;83.56;98940.46;102856;1269;98847;-69
2024/02/08 05:15:06;;;;;;;9.00;5.00;;;;;;;0.04;83.54;98946.10;102444;1270;138503;-68
2024/02/08 05:17:33;;;;;;;9.40;5.60;;;;;;;0.04;83.50;98944.39;102455;1273;97691;-67
2024/02/08 05:20:01;;;;;;;9.60;5.20;;;;;;;0.04;83.47;98944.23;102343;1273;138079;-67
2024/02/08 05:22:32;;;;;;;7.80;5.40;;;;;;;0.04;83.66;98945.59;102428;1270;108211;-69
2024/02/08 05:25:00;;;;;;;7.50;5.70;;;;;;;0.06;83.72;98943.18;103028;1269;139480;-68
2024/02/08 05:27:27;;;;;;;8.40;5.50;;;;;;;0.06;83.66;98944.73;102752;1269;106670;-69
2024/02/08 05:29:55;;;;;;;9.50;5.70;;;;;;;0.06;83.64;98942.15;102470;1269;97810;-69
2024/02/08 05:32:23;;;;;;;9.90;5.90;;;;;;;0.06;83.65;98947.79;103312;1269;138658;-69
2024/02/08 05:34:51;;;;;;;7.60;5.50;;;;;;;0.05;83.57;98951.05;102414;1268;107626;-69
2024/02/08 05:37:23;;;;;;;12.20;5.90;;;;;;;0.03;83.50;98952.61;102907;1272;138594;-68
2024/02/08 05:39:51;;;;;;;7.90;5.80;;;;;;;0.02;83.31;98949.54;100928;1269;1002975;-67
2024/02/08 05:42:21;;;;;;;9.50;5.70;;;;;;;0.01;83.37;98945.63;102453;1270;97832;-68
2024/02/08 05:44:48;;;;;;;8.80;6.00;;;;;;;-0.00;83.41;98943.06;102310;1270;138120;-67
2024/02/08 05:47:15;;;;;;;9.60;6.70;;;;;;;-0.03;83.40;98944.27;102406;1273;107344;-71
2024/02/08 05:49:48;;;;;;;9.30;6.00;;;;;;;-0.04;83.33;98946.33;102283;1270;138423;-68
2024/02/08 05:52:17;;;;;;;10.10;6.40;;;;;;;-0.03;83.31;98949.73;101647;1269;1003606;-68
2024/02/08 05:54:45;;;;;;;9.70;6.00;;;;;;;-0.05;83.36;98952.66;102524;1270;97867;-67
2024/02/08 05:57:14;;;;;;;11.80;6.10;;;;;;;-0.05;83.32;98955.40;102507;1270;110838;-69
2024/02/08 05:59:44;;;;;;;7.30;5.90;;;;;;;-0.07;83.33;98962.61;102369;1273;109012;-69
2024/02/08 06:02:22;;;;;;;9.90;6.30;;;;;;;-0.07;83.40;98963.45;102357;1270;138384;-69
2024/02/08 06:04:59;;;;;;;9.20;6.20;;;;;;;-0.05;83.45;98963.77;102410;1270;108153;-68
2024/02/08 06:07:30;;;;;;;7.90;5.90;;;;;;;-0.04;83.30;98971.80;102355;1269;138850;-69
2024/02/08 06:10:09;;;;;;;9.10;6.50;;;;;;;-0.06;83.24;98969.77;102726;1271;110514;-68
2024/02/08 06:12:43;;;;;;;10.80;6.90;;;;;;;-0.07;83.39;98973.20;102732;1270;107276;-69
2024/02/08 06:15:21;;;;;;;10.70;6.50;;;;;;;-0.06;83.38;98975.76;102412;1269;97938;-68
2024/02/08 06:17:57;;;;;;;8.30;6.00;;;;;;;-0.06;83.45;98978.98;102459;1270;106851;-69
2024/02/08 06:20:33;;;;;;;10.30;6.40;;;;;;;-0.06;83.30;98978.83;103083;1269;139644;-69
2024/02/08 06:23:16;;;;;;;8.40;6.30;;;;;;;-0.06;83.34;98980.52;102705;1270;111986;-70
2024/02/08 06:26:27;;;;;;;10.90;6.20;;;;;;;-0.05;83.28;98980.35;102283;1270;139154;-68
2024/02/08 06:28:52;;;;;;;10.90;6.70;;;;;;;-0.05;83.44;98978.80;102522;1270;98635;-69
2024/02/08 06:31:29;;;;;;;10.50;6.30;;;;;;;-0.03;83.34;98986.64;102269;1271;138579;-68
2024/02/08 06:37:02;;;;;;;12.50;7.30;;;;;;;-0.02;83.46;98990.05;102576;1270;138643;-69
2024/02/08 06:39:29;;;;;;;14.30;7.10;;;;;;;-0.01;83.45;98997.40;102632;1267;107288;-69
2024/02/08 06:42:07;;;;;;;12.20;7.40;;;;;;;-0.02;83.47;99000.30;102694;1270;97711;-70
2024/02/08 06:44:53;;;;;;;12.20;7.80;;;;;;;0.01;83.44;98996.04;102974;1273;139751;-69
2024/02/08 06:47:54;;;;;;;12.10;7.30;;;;;;;0.02;83.59;98999.78;102312;1270;97941;-69
2024/02/08 07:39:36;;;;;;;14.20;7.70;;;;;;;0.91;82.57;99012.62;103138;1267;108084;-70
2024/02/08 07:42:12;;;;;;;13.30;7.90;;;;;;;0.95;82.32;99017.02;102494;1271;97832;-69
2024/02/08 07:44:45;;;;;;;11.50;7.40;;;;;;;0.97;82.14;99024.02;102340;1270;138424;-70
2024/02/08 07:47:13;;;;;;;13.60;7.70;;;;;;;0.97;81.95;99028.97;102922;1270;107985;-70
2024/02/08 07:49:43;;;;;;;12.50;7.50;;;;;;;0.99;82.01;99030.30;101059;1270;1003562;-70
2024/02/08 07:52:19;;;;;;;12.90;7.20;;;;;;;1.04;82.07;99024.92;102466;1272;107619;-70
2024/02/08 07:54:56;;;;;;;14.00;7.60;;;;;;;1.08;81.80;99024.38;102546;1270;98022;-70
2024/02/08 07:57:26;;;;;;;13.90;8.30;;;;;;;1.10;81.80;99020.93;102534;1270;110221;-69
2024/02/08 07:59:59;;;;;;;13.50;7.50;;;;;;;1.14;81.67;99028.05;102354;1270;107551;-70
2024/02/08 08:02:37;;;;;;;14.50;7.60;;;;;;;1.17;81.56;99035.73;102065;1267;138777;-68
2024/02/08 08:05:14;;;;;;;12.90;7.50;;;;;;;1.20;81.56;99039.77;103024;1270;107072;-70
2024/02/08 08:07:44;;;;;;;18.30;8.20;;;;;;;1.25;81.54;99040.06;101782;1273;1003404;-70
2024/02/08 08:10:12;;;;;;;12.70;7.50;;;;;;;1.29;81.35;99036.42;102210;1270;111848;-70
2024/02/08 08:12:39;;;;;;;12.90;7.60;;;;;;;1.32;81.27;99034.84;102367;1270;108643;-70
2024/02/08 08:15:14;;;;;;;14.60;7.90;;;;;;;1.36;81.13;99033.23;102293;1272;138574;-70
2024/02/08 08:17:43;;;;;;;15.70;7.60;;;;;;;1.40;81.11;99029.55;102629;1270;107708;-70
2024/02/08 08:23:00;;;;;;;12.90;7.60;;;;;;;1.46;80.85;99027.43;102522;1270;111747;-71
2024/02/08 08:25:44;;;;;;;16.10;8.20;;;;;;;1.50;80.73;99028.06;102200;1270;139289;-71
2024/02/08 08:28:29;;;;;;;15.20;7.70;;;;;;;1.52;80.54;99018.42;102642;1270;97940;-71
2024/02/08 08:31:16;;;;;;;16.30;7.70;;;;;;;1.55;80.55;99013.23;102401;1270;108486;-71
2024/02/08 08:33:59;;;;;;;11.50;6.80;;;;;;;1.60;80.37;99021.20;102699;1271;97812;-71
2024/02/08 08:36:34;;;;;;;13.70;6.80;;;;;;;1.65;80.38;99027.48;102361;1270;111429;-71
2024/02/08 08:41:48;;;;;;;14.30;6.30;;;;;;;1.82;80.17;99035.77;102415;1270;97816;-71
2024/02/08 08:44:18;;;;;;;11.60;6.60;;;;;;;1.88;79.87;99033.97;102214;1270;138269;-71
2024/02/08 08:46:45;;;;;;;12.00;6.80;;;;;;;1.94;79.84;99034.88;102365;1271;97867;-71
2024/02/08 08:49:14;;;;;;;12.90;6.60;;;;;;;1.93;79.50;99024.96;102102;1273;139458;-72
2024/02/08 08:51:50;;;;;;;12.40;6.20;;;;;;;1.92;79.38;99027.71;102380;1270;107615;-73
2024/02/08 08:54:28;;;;;;;14.80;7.90;;;;;;;1.89;79.20;99030.52;102695;1271;97824;-68
2024/02/08 08:56:56;;;;;;;14.60;6.70;;;;;;;1.84;79.19;99029.74;102261;1269;138251;-68
2024/02/08 08:59:26;;;;;;;11.90;6.20;;;;;;;1.83;79.39;99038.34;102382;1270;97714;-73
2024/02/08 09:02:00;;;;;;;14.30;6.70;;;;;;;1.86;79.59;99037.95;102096;1271;138387;-72
2024/02/08 09:04:32;;;;;;;17.20;7.50;;;;;;;1.90;79.57;99035.98;102302;1273;107838;-72
2024/02/08 09:07:10;;;;;;;11.50;6.50;;;;;;;1.97;79.55;99040.67;102323;1270;98359;-72
2024/02/08 09:12:28;;;;;;;11.90;6.60;;;;;;;2.09;79.41;99031.52;102366;1271;97989;-71
2024/02/08 09:14:59;;;;;;;15.10;6.50;;;;;;;2.24;79.45;99033.70;102210;1269;138212;-72
2024/02/08 09:17:43;;;;;;;13.30;6.30;;;;;;;2.31;79.03;99034.92;102379;1271;107420;-71
2024/02/08 09:20:20;;;;;;;15.00;7.60;;;;;;;2.34;78.73;99029.21;102287;1270;139116;-72
2024/02/08 09:22:52;;;;;;;14.50;6.60;;;;;;;2.44;78.70;99028.16;103033;1270;108474;-73
2024/02/08 09:25:19;;;;;;;10.80;6.30;;;;;;;2.60;78.57;99033.02;102326;1270;139668;-71
2024/02/08 09:28:23;;;;;;;14.40;6.10;;;;;;;2.70;77.72;99038.66;102295;1270;111075;-72
2024/02/08 09:30:53;;;;;;;;;;;;;;;2.73;77.69;99026.58;102316;1270;108582;-71
2024/02/08 09:33:31;;;;;;;16.00;6.50;;;;;;;2.86;77.55;99023.56;102626;1272;124496;-72
2024/02/08 09:35:59;;;;;;;16.00;6.40;;;;;;;2.92;77.23;99020.87;102427;1267;107242;-71
2024/02/08 09:38:28;;;;;;;14.00;6.00;;;;;;;2.94;76.21;99019.80;102618;1270;138599;-72
2024/02/08 09:40:59;;;;;;;11.10;6.70;;;;;;;2.99;76.63;99017.97;102320;1269;110352;-70
2024/02/08 09:43:29;;;;;;;15.60;6.40;;;;;;;3.08;76.42;99016.41;102143;1272;139532;-71
2024/02/08 09:46:10;;;;;;;13.40;5.90;;;;;;;3.10;76.08;99019.63;102228;1273;97848;-71
2024/02/08 09:48:46;;;;;;;20.70;10.10;;;;;;;3.15;76.14;99025.02;102281;1273;107370;-72
2024/02/08 09:51:24;;;;;;;18.10;9.20;;;;;;;3.24;76.21;99024.98;102220;1271;139124;-74
2024/02/08 09:54:01;;;;;;;14.20;6.10;;;;;;;3.30;75.78;99020.73;102816;1271;111536;-72
2024/02/08 09:56:35;;;;;;;14.00;6.00;;;;;;;3.25;74.85;99016.55;102221;1271;138429;-73
2024/02/08 09:59:07;;;;;;;12.70;7.10;;;;;;;3.22;74.89;99024.17;102287;1272;97732;-73
2024/02/08 10:01:43;;;;;;;12.20;6.00;;;;;;;3.25;74.97;99028.57;102169;1273;138716;-74
2024/02/08 10:04:25;;;;;;;14.30;6.40;;;;;;;3.25;74.51;99032.20;102314;1271;97834;-72
2024/02/08 10:07:05;;;;;;;18.30;7.00;;;;;;;3.23;74.23;99026.39;102791;1271;115335;-73
2024/02/08 10:09:36;;;;;;;15.30;5.70;;;;;;;3.11;73.38;99022.52;102593;1270;108051;-73
2024/02/08 10:12:07;;;;;;;17.40;6.70;;;;;;;2.99;73.14;99021.73;102420;1270;97841;-70
2024/02/08 10:14:35;;;;;;;14.00;6.50;;;;;;;2.85;73.52;99005.22;102440;1270;138488;-71
2024/02/08 10:17:15;;;;;;;11.60;5.40;;;;;;;2.77;73.29;99002.99;102391;1271;98553;-71
2024/02/08 10:20:32;;;;;;;11.40;5.60;;;;;;;2.65;73.30;99003.04;102280;1267;138448;-72
2024/02/08 10:22:53;;;;;;;10.80;5.80;;;;;;;2.65;73.77;98995.50;102337;1267;108738;-71
2024/02/08 10:28:08;;;;;;;12.30;5.50;;;;;;;2.76;74.26;98994.09;102041;1270;108543;-71
2024/02/08 10:30:36;;;;;;;13.90;6.40;;;;;;;2.79;73.89;99002.43;103450;1272;96537;-72
2024/02/08 10:33:14;;;;;;;11.50;6.00;;;;;;;2.83;73.88;99004.91;103464;1269;138857;-70
2024/02/08 10:35:42;;;;;;;11.50;6.30;;;;;;;2.86;73.58;99005.20;102962;1271;107071;-70
2024/02/08 10:38:29;;;;;;;10.70;6.60;;;;;;;2.91;73.38;98997.36;102137;1272;138548;-70
2024/02/08 10:40:58;;;;;;;14.00;7.10;;;;;;;2.96;73.27;98992.96;102183;1273;106837;-72
2024/02/08 10:43:25;;;;;;;14.00;7.50;;;;;;;2.94;72.87;98984.60;102525;1273;139505;-70
2024/02/08 10:45:54;;;;;;;13.90;7.60;;;;;;;2.94;72.80;98985.13;102793;1270;110073;-72
2024/02/08 10:48:23;;;;;;;14.80;7.60;;;;;;;2.92;72.79;98984.65;102319;1273;107346;-73
2024/02/08 10:50:51;;;;;;;13.20;7.10;;;;;;;2.92;73.02;98982.76;102285;1269;139810;-72
2024/02/08 10:53:43;;;;;;;14.80;7.00;;;;;;;2.92;72.68;98976.58;102327;1270;108594;-73
2024/02/08 10:56:14;;;;;;;11.60;7.00;;;;;;;2.92;72.96;98971.26;102308;1273;139942;-72
2024/02/08 10:58:55;;;;;;;13.70;7.30;;;;;;;2.96;72.39;98962.77;102509;1272;112786;-71
2024/02/08 11:01:37;;;;;;;27.40;17.80;;;;;;;2.92;72.34;98964.21;102382;1272;139777;-70
2024/02/08 11:04:17;;;;;;;17.00;9.50;;;;;;;2.83;71.75;98960.29;102393;1268;98335;-72
2024/02/08 11:06:54;;;;;;;11.80;7.00;;;;;;;2.72;71.72;98962.92;102450;1273;107134;-70
2024/02/08 11:09:27;;;;;;;13.70;6.50;;;;;;;2.61;71.76;98959.19;102245;1270;138677;-70
2024/02/08 11:12:00;;;;;;;13.70;7.10;;;;;;;2.55;71.86;98954.36;102325;1272;111772;-70
2024/02/08 11:14:29;;;;;;;11.60;7.20;;;;;;;2.47;71.38;98957.59;102493;1273;138593;-72
2024/02/08 11:17:03;;;;;;;14.20;7.10;;;;;;;2.38;71.33;98962.42;102464;1271;98136;-72
2024/02/08 11:19:35;;;;;;;10.10;6.10;;;;;;;2.30;71.47;98955.00;102338;1270;139814;-71
2024/02/08 11:22:18;;;;;;;11.60;6.20;;;;;;;2.22;71.36;98956.55;102379;1273;97697;-71
2024/02/08 11:24:57;;;;;;;11.20;5.80;;;;;;;2.15;71.61;98950.33;102582;1272;111400;-71
2024/02/08 11:27:29;;;;;;;12.50;5.10;;;;;;;2.07;71.05;98950.99;102471;1273;138269;-71
2024/02/08 11:29:57;;;;;;;8.00;4.90;;;;;;;1.97;71.38;98949.13;102126;1271;98482;-71
2024/02/08 11:32:26;;;;;;;7.70;4.90;;;;;;;1.97;72.05;98950.67;101639;1270;1003104;-72
2024/02/08 11:35:00;;;;;;;12.20;5.30;;;;;;;2.03;71.89;98950.22;102269;1272;97890;-71
2024/02/08 11:37:37;;;;;;;13.00;5.50;;;;;;;2.03;71.41;98954.85;102489;1273;138725;-71
2024/02/08 11:40:11;;;;;;;10.10;5.30;;;;;;;2.01;71.46;98954.04;102406;1273;107981;-71
2024/02/08 11:42:42;;;;;;;5.80;4.40;;;;;;;2.02;71.71;98955.73;102338;1270;97876;-70
2024/02/08 11:45:16;;;;;;;6.00;4.20;;;;;;;2.02;70.88;98958.82;102055;1273;138187;-72
2024/02/08 11:47:48;;;;;;;8.70;4.50;;;;;;;2.00;71.29;98948.40;102402;1270;98067;-71
2024/02/08 11:50:24;;;;;;;8.40;4.20;;;;;;;2.01;70.95;98951.64;102331;1270;139010;-72
2024/02/08 11:52:59;;;;;;;8.70;4.70;;;;;;;1.97;71.01;98948.95;102608;1270;108174;-69
2024/02/08 11:55:28;;;;;;;8.50;3.90;;;;;;;1.95;70.42;98948.13;102780;1271;138476;-70
2024/02/08 11:57:58;;;;;;;7.30;3.90;;;;;;;1.91;70.70;98942.38;102439;1272;108975;-70
2024/02/08 12:00:26;;;;;;;7.40;5.00;;;;;;;1.90;70.74;98941.55;102343;1271;97859;-70
2024/02/08 12:02:57;;;;;;;7.60;4.90;;;;;;;1.88;70.48;98940.39;102265;1270;138172;-71
2024/02/08 12:05:27;;;;;;;10.30;4.30;;;;;;;1.87;70.85;98932.00;102326;1273;106267;-71
2024/02/08 12:08:08;;;;;;;8.00;4.00;;;;;;;1.95;70.86;98929.09;102214;1270;138538;-71
2024/02/08 12:10:36;;;;;;;10.70;4.30;;;;;;;1.96;70.75;98919.48;102152;1273;108750;-70
2024/02/08 12:13:05;;;;;;;9.40;4.40;;;;;;;2.02;70.55;98921.43;102186;1273;97777;-71
2024/02/08 12:15:34;;;;;;;9.30;4.30;;;;;;;2.04;70.65;98913.85;102368;1272;111372;-71
2024/02/08 12:18:06;;;;;;;11.70;4.50;;;;;;;2.09;70.56;98909.47;102200;1272;107243;-70
2024/02/08 12:20:36;;;;;;;8.10;4.00;;;;;;;2.09;70.59;98910.83;102671;1271;139410;-69
2024/02/08 12:23:04;;;;;;;8.90;3.90;;;;;;;2.08;70.59;98904.17;102275;1271;108664;-70
2024/02/08 12:25:33;;;;;;;8.00;4.00;;;;;;;2.08;70.19;98908.47;102642;1270;139306;-71
2024/02/08 12:28:04;;;;;;;9.30;3.90;;;;;;;2.04;70.24;98917.80;102289;1273;111002;-70
2024/02/08 12:30:36;;;;;;;7.40;4.10;;;;;;;2.01;69.77;98916.16;102442;1273;106971;-71
2024/02/08 12:33:08;;;;;;;7.50;4.00;;;;;;;1.98;70.01;98919.64;102943;1272;138225;-71
2024/02/08 12:35:40;;;;;;;11.30;4.30;;;;;;;1.95;70.17;98918.29;102441;1270;107464;-71
2024/02/08 12:38:11;;;;;;;9.40;3.80;;;;;;;1.91;70.07;98916.33;102716;1273;138884;-71
2024/02/08 12:40:44;;;;;;;9.90;4.40;;;;;;;1.88;70.32;98915.02;102391;1271;110378;-71
2024/02/08 12:43:11;;;;;;;10.30;4.70;;;;;;;1.87;70.48;98912.29;102205;1269;138350;-79
2024/02/08 12:45:39;;;;;;;13.90;5.50;;;;;;;1.85;70.47;98908.73;102262;1270;98357;-80
2024/02/08 12:48:08;;;;;;;8.20;5.10;;;;;;;1.81;70.17;98906.05;102310;1272;107007;-80
2024/02/08 12:50:37;;;;;;;9.80;5.60;;;;;;;1.78;70.38;98898.20;102457;1272;138374;-80
2024/02/08 12:53:06;;;;;;;9.00;4.50;;;;;;;1.75;70.69;98895.69;102367;1272;110706;-80
2024/02/08 12:55:33;;;;;;;13.20;6.30;;;;;;;1.74;70.77;98894.86;102261;1268;138477;-80
2024/02/08 12:58:02;;;;;;;11.90;6.10;;;;;;;1.72;70.92;98891.13;102399;1270;98436;-78
2024/02/08 13:00:33;;;;;;;18.80;5.60;;;;;;;1.75;71.41;98885.94;102352;1271;107655;-80
2024/02/08 13:03:05;;;;;;;10.80;4.70;;;;;;;1.78;71.52;98885.02;102282;1276;138382;-80
2024/02/08 13:05:39;;;;;;;10.70;5.50;;;;;;;1.79;71.71;98890.83;102292;1273;111871;-78
2024/02/08 13:08:08;;;;;;;11.80;5.40;;;;;;;1.79;71.50;98883.13;102148;1277;138755;-80
2024/02/08 13:10:36;;;;;;;9.50;5.40;;;;;;;1.77;71.53;98880.92;102504;1274;97740;-80
2024/02/08 13:13:10;;;;;;;11.60;5.70;;;;;;;1.73;71.47;98878.44;102261;1273;107832;-81
2024/02/08 13:15:41;;;;;;;10.70;5.40;;;;;;;1.68;71.67;98878.87;102381;1270;97893;-81
2024/02/08 13:18:11;;;;;;;14.40;6.40;;;;;;;1.62;71.84;98876.42;102381;1272;110144;-81
2024/02/08 13:20:39;;;;;;;13.90;6.20;;;;;;;1.59;72.32;98873.04;101717;1271;1003607;-79
2024/02/08 13:23:10;;;;;;;11.40;6.10;;;;;;;1.58;72.32;98874.25;102207;1271;97949;-80
2024/02/08 13:25:39;;;;;;;12.80;5.90;;;;;;;1.52;72.57;98861.85;102043;1270;138407;-79
2024/02/08 13:28:09;;;;;;;11.20;5.80;;;;;;;1.55;72.49;98863.52;102308;1272;97899;-81
2024/02/08 13:30:39;;;;;;;11.90;5.50;;;;;;;1.56;72.55;98863.33;102313;1270;111376;-81